Time;durP1;ratioP1;P1;durP2;ratioP2;P2;SDS_P1;SDS_P2;PMS_P1;PMS_P2;Temp;Humidity;BMP_temperature;BMP_pressure;BME280_temperature;BME280_humidity;BME280_pressure;Samples;Min_cycle;Max_cycle;Signal;HPM_P1;HPM_P2
2024/03/20 00:01:26;;;;;;;6.85;2.58;;;10.90;99.90;;;;;;5012294;28;20045;-72
2024/03/20 00:03:52;;;;;;;10.70;3.40;;;10.90;99.90;;;;;;4994270;28;20034;-76
2024/03/20 00:06:18;;;;;;;5.97;3.00;;;10.90;99.90;;;;;;5007194;28;20034;-71
2024/03/20 00:08:43;;;;;;;8.82;2.92;;;10.90;99.90;;;;;;4994569;28;20029;-71
2024/03/20 00:11:09;;;;;;;9.90;4.00;;;10.90;99.90;;;;;;5008568;28;20053;-72
2024/03/20 00:13:34;;;;;;;7.03;2.70;;;10.90;99.90;;;;;;5013041;28;20066;-72
2024/03/20 00:16:00;;;;;;;11.07;3.15;;;10.90;99.90;;;;;;5018253;28;20453;-72
2024/03/20 00:18:26;;;;;;;7.43;3.15;;;10.90;99.90;;;;;;5014368;28;20048;-71
2024/03/20 00:20:51;;;;;;;10.85;3.20;;;10.90;99.90;;;;;;5015674;28;20056;-70
2024/03/20 00:23:17;;;;;;;8.35;2.72;;;10.90;99.90;;;;;;4991047;28;20087;-73
2024/03/20 00:25:43;;;;;;;8.57;3.08;;;10.90;99.90;;;;;;5013544;28;20042;-72
2024/03/20 00:28:08;;;;;;;5.85;3.38;;;10.90;99.90;;;;;;5002139;28;20030;-72
2024/03/20 00:30:36;;;;;;;9.20;3.17;;;10.90;99.90;;;;;;5016275;28;20033;-71
2024/03/20 00:33:01;;;;;;;5.50;2.75;;;10.90;99.90;;;;;;5014324;28;20044;-70
2024/03/20 00:35:27;;;;;;;10.85;3.08;;;10.90;99.90;;;;;;5017144;28;20042;-72
2024/03/20 00:37:52;;;;;;;10.18;2.95;;;10.90;99.90;;;;;;5000044;28;20145;-71
2024/03/20 00:40:18;;;;;;;7.80;2.90;;;10.90;99.90;;;;;;5021326;28;20032;-73
2024/03/20 00:42:44;;;;;;;8.50;3.05;;;10.80;99.90;;;;;;5012072;28;20054;-72
2024/03/20 00:45:09;;;;;;;13.07;3.63;;;10.80;99.90;;;;;;4995856;28;20038;-72
2024/03/20 00:47:35;;;;;;;8.18;2.47;;;10.80;99.90;;;;;;5016297;28;20568;-71
2024/03/20 00:50:00;;;;;;;9.20;3.55;;;10.70;99.90;;;;;;5019250;28;20047;-72
2024/03/20 00:52:26;;;;;;;9.27;3.53;;;10.70;99.90;;;;;;5017170;28;20039;-72
2024/03/20 00:54:52;;;;;;;12.02;4.28;;;10.70;99.90;;;;;;5012120;28;20079;-73
2024/03/20 00:57:17;;;;;;;17.20;3.65;;;10.60;99.90;;;;;;5013421;28;20057;-72
2024/03/20 00:59:43;;;;;;;9.18;3.20;;;10.60;99.90;;;;;;5000295;28;20406;-72
2024/03/20 01:02:08;;;;;;;9.50;3.22;;;10.60;99.90;;;;;;5016887;28;20044;-72
2024/03/20 01:04:34;;;;;;;6.13;3.03;;;10.60;99.90;;;;;;5016354;28;20043;-71
2024/03/20 01:06:59;;;;;;;8.30;3.33;;;10.60;99.90;;;;;;5014684;28;20021;-74
2024/03/20 01:09:25;;;;;;;6.97;3.17;;;10.60;99.90;;;;;;4996425;28;20037;-72
2024/03/20 01:11:50;;;;;;;8.23;3.22;;;10.60;99.90;;;;;;5016973;28;20034;-72
2024/03/20 01:14:16;;;;;;;11.75;3.97;;;10.50;99.90;;;;;;5015072;28;20072;-73
2024/03/20 01:16:42;;;;;;;9.48;3.50;;;10.50;99.90;;;;;;5017769;28;20033;-72
2024/03/20 01:19:08;;;;;;;10.77;3.05;;;10.50;99.90;;;;;;5000100;28;20030;-72
2024/03/20 01:21:33;;;;;;;7.30;3.00;;;10.40;99.90;;;;;;5016631;28;20084;-72
2024/03/20 01:23:59;;;;;;;8.90;3.25;;;10.40;99.90;;;;;;5000406;28;20045;-72
2024/03/20 01:26:25;;;;;;;7.78;3.60;;;10.40;99.90;;;;;;5014372;28;20037;-72
2024/03/20 01:28:50;;;;;;;8.18;3.38;;;10.40;99.90;;;;;;5012296;28;20061;-72
2024/03/20 01:31:16;;;;;;;7.22;3.00;;;10.30;99.90;;;;;;4998117;28;20038;-73
2024/03/20 01:33:41;;;;;;;7.63;3.17;;;10.30;99.90;;;;;;5018224;28;20498;-71
2024/03/20 01:36:07;;;;;;;11.85;3.25;;;10.30;99.90;;;;;;5011216;28;20037;-72
2024/03/20 01:38:32;;;;;;;8.30;3.22;;;10.20;99.90;;;;;;4999324;28;20383;-73
2024/03/20 01:40:58;;;;;;;6.88;3.00;;;10.20;99.90;;;;;;4997825;28;20038;-73
2024/03/20 01:43:23;;;;;;;10.02;3.10;;;10.20;99.90;;;;;;4997318;28;20087;-72
2024/03/20 01:45:49;;;;;;;10.38;3.63;;;10.10;99.90;;;;;;5015371;28;20137;-72
2024/03/20 01:48:18;;;;;;;9.00;3.90;;;10.10;99.90;;;;;;5015164;28;20065;-73
2024/03/20 01:50:44;;;;;;;14.65;3.95;;;10.10;99.90;;;;;;5011942;28;20079;-72
2024/03/20 01:53:12;;;;;;;8.55;3.10;;;10.10;99.90;;;;;;5010026;28;20475;-72
2024/03/20 01:55:39;;;;;;;6.07;2.70;;;10.10;99.90;;;;;;5018165;28;20042;-72
2024/03/20 01:58:05;;;;;;;15.77;3.80;;;10.10;99.90;;;;;;4997482;28;20491;-72
2024/03/20 02:00:30;;;;;;;9.90;3.20;;;10.10;99.90;;;;;;5016655;28;20056;-73
2024/03/20 02:03:02;;;;;;;12.50;3.75;;;10.10;99.90;;;;;;5017856;28;20395;-72
2024/03/20 02:05:28;;;;;;;11.05;3.53;;;10.10;99.90;;;;;;5014305;28;20034;-74
2024/03/20 02:07:55;;;;;;;7.47;3.17;;;10.10;99.90;;;;;;5001708;28;20108;-71
2024/03/20 02:10:21;;;;;;;9.77;3.42;;;10.10;99.90;;;;;;5017952;28;20367;-72
2024/03/20 02:13:03;;;;;;;10.77;3.10;;;10.10;99.90;;;;;;4998225;28;20045;-71
2024/03/20 02:15:30;;;;;;;7.10;4.22;;;10.10;99.90;;;;;;5012926;28;20038;-73
2024/03/20 02:17:56;;;;;;;6.93;3.50;;;10.00;99.90;;;;;;4991292;28;20478;-72
2024/03/20 02:20:21;;;;;;;8.45;3.22;;;10.00;99.90;;;;;;5006931;28;20030;-72
2024/03/20 02:22:47;;;;;;;11.57;3.55;;;10.00;99.90;;;;;;4993850;28;20049;-71
2024/03/20 02:25:12;;;;;;;9.20;3.45;;;10.00;99.90;;;;;;5011209;28;20033;-72
2024/03/20 02:27:41;;;;;;;9.65;3.55;;;10.00;99.90;;;;;;5010400;28;20080;-74
2024/03/20 02:30:12;;;;;;;8.27;3.50;;;10.00;99.90;;;;;;5009990;28;20041;-73
2024/03/20 02:32:38;;;;;;;7.22;3.53;;;10.00;99.90;;;;;;5010741;28;20041;-72
2024/03/20 02:35:05;;;;;;;9.90;3.35;;;10.00;99.90;;;;;;5007300;28;20042;-72
2024/03/20 02:37:31;;;;;;;7.53;3.70;;;10.00;99.90;;;;;;5011575;28;20034;-72
2024/03/20 02:39:57;;;;;;;11.23;3.85;;;10.00;99.90;;;;;;4993737;28;20146;-71
2024/03/20 02:42:23;;;;;;;6.30;3.00;;;10.00;99.90;;;;;;5009055;28;20073;-72
2024/03/20 02:44:49;;;;;;;8.38;3.35;;;9.90;99.90;;;;;;5011827;28;20041;-72
2024/03/20 02:47:15;;;;;;;7.90;3.28;;;9.90;99.90;;;;;;5011583;28;20625;-71
2024/03/20 02:49:40;;;;;;;8.13;3.35;;;9.80;99.90;;;;;;4994014;28;20041;-71
2024/03/20 02:52:06;;;;;;;15.65;3.20;;;9.80;99.90;;;;;;5012628;28;20061;-71
2024/03/20 02:54:31;;;;;;;10.77;3.85;;;9.80;99.90;;;;;;5016481;28;20499;-72
2024/03/20 02:56:57;;;;;;;8.63;2.75;;;9.70;99.90;;;;;;5013649;28;20495;-72
2024/03/20 02:59:23;;;;;;;9.32;3.10;;;9.70;99.90;;;;;;4991298;28;20038;-71
2024/03/20 03:01:48;;;;;;;8.02;2.50;;;9.70;99.90;;;;;;4996734;28;20136;-72
2024/03/20 03:04:14;;;;;;;7.18;2.65;;;9.70;99.90;;;;;;5011050;28;20029;-72
2024/03/20 03:06:39;;;;;;;8.20;3.25;;;9.60;99.90;;;;;;5011690;28;20034;-72
2024/03/20 03:09:08;;;;;;;9.02;3.78;;;9.60;99.90;;;;;;5012798;28;20029;-71
2024/03/20 03:11:36;;;;;;;13.35;4.00;;;9.60;99.90;;;;;;4989538;28;20033;-73
2024/03/20 03:14:03;;;;;;;12.60;3.78;;;9.50;99.90;;;;;;5009547;28;20037;-72
2024/03/20 03:16:29;;;;;;;12.57;3.95;;;9.50;99.90;;;;;;5006047;28;20535;-73
2024/03/20 03:18:54;;;;;;;10.95;3.55;;;9.50;99.90;;;;;;5011752;28;20084;-72
2024/03/20 03:21:20;;;;;;;10.63;3.25;;;9.50;99.90;;;;;;5010943;28;20029;-73
2024/03/20 03:23:47;;;;;;;6.25;3.15;;;9.40;99.90;;;;;;4993442;28;20038;-72
2024/03/20 03:26:12;;;;;;;9.35;3.63;;;9.40;99.90;;;;;;5012012;28;20044;-72
2024/03/20 03:28:38;;;;;;;9.00;2.78;;;9.40;99.90;;;;;;5013554;28;20037;-72
2024/03/20 03:31:03;;;;;;;8.25;3.95;;;9.30;99.90;;;;;;4997439;28;20030;-72
2024/03/20 03:33:29;;;;;;;10.00;3.35;;;9.30;99.90;;;;;;5009413;28;20061;-73
2024/03/20 03:36:08;;;;;;;8.75;3.55;;;9.30;99.90;;;;;;5012791;28;20112;-71
2024/03/20 03:38:33;;;;;;;10.35;3.97;;;9.30;99.90;;;;;;4992328;28;20376;-72
2024/03/20 03:41:03;;;;;;;8.60;3.90;;;9.30;99.90;;;;;;5015939;28;20051;-71
2024/03/20 03:43:29;;;;;;;12.98;3.50;;;9.20;99.90;;;;;;5010195;28;21053;-71
2024/03/20 03:45:55;;;;;;;7.40;3.63;;;9.20;99.90;;;;;;4994204;28;20092;-72
2024/03/20 03:48:20;;;;;;;7.30;3.13;;;9.20;99.90;;;;;;4994138;28;20462;-72
2024/03/20 03:50:49;;;;;;;7.40;3.33;;;9.20;99.90;;;;;;4998894;28;20042;-72
2024/03/20 03:53:15;;;;;;;10.18;3.78;;;9.10;99.90;;;;;;5014534;28;20069;-73
2024/03/20 03:55:40;;;;;;;9.25;3.60;;;9.10;99.90;;;;;;5020803;28;20124;-73
2024/03/20 03:58:06;;;;;;;8.80;3.78;;;9.10;99.90;;;;;;5013670;28;20117;-72
2024/03/20 04:00:32;;;;;;;9.02;3.35;;;9.10;99.90;;;;;;4995361;28;20030;-72
2024/03/20 04:02:57;;;;;;;8.27;3.65;;;9.10;99.90;;;;;;4999823;28;20414;-73
2024/03/20 04:05:24;;;;;;;15.32;3.33;;;9.10;99.90;;;;;;5015453;28;20037;-73
2024/03/20 04:07:52;;;;;;;10.20;3.67;;;9.00;99.90;;;;;;5018313;28;20041;-72
2024/03/20 04:10:17;;;;;;;10.60;3.17;;;9.00;99.90;;;;;;4996616;28;20049;-72
2024/03/20 04:12:43;;;;;;;8.35;3.78;;;9.00;99.90;;;;;;5002688;28;20703;-73
2024/03/20 04:15:09;;;;;;;9.13;2.83;;;8.90;99.90;;;;;;4998494;28;20053;-72
2024/03/20 04:17:34;;;;;;;8.82;3.55;;;8.90;99.90;;;;;;5017901;28;20033;-73
2024/03/20 04:20:00;;;;;;;8.35;3.22;;;8.90;99.90;;;;;;4999835;28;20038;-72
2024/03/20 04:22:25;;;;;;;6.45;3.08;;;8.90;99.90;;;;;;5017422;28;20038;-71
2024/03/20 04:24:51;;;;;;;7.45;3.38;;;8.90;99.90;;;;;;5018733;28;20697;-72
2024/03/20 04:27:16;;;;;;;8.70;3.78;;;8.90;99.90;;;;;;5017583;28;20586;-73
2024/03/20 04:29:42;;;;;;;11.55;4.18;;;8.90;99.90;;;;;;5016644;28;21138;-71
2024/03/20 04:32:10;;;;;;;9.20;3.30;;;8.90;99.90;;;;;;5014225;28;20029;-70
2024/03/20 04:34:36;;;;;;;11.48;3.50;;;9.00;99.90;;;;;;4998039;28;20426;-72
2024/03/20 04:37:02;;;;;;;12.88;3.92;;;9.00;99.90;;;;;;5015739;28;20034;-71
2024/03/20 04:39:32;;;;;;;14.18;3.30;;;9.00;99.90;;;;;;4990973;28;20414;-71
2024/03/20 04:41:58;;;;;;;17.90;3.97;;;9.10;99.90;;;;;;4997878;28;20026;-71
2024/03/20 04:44:24;;;;;;;7.50;2.83;;;9.10;99.90;;;;;;5016597;28;20708;-72
2024/03/20 04:46:49;;;;;;;7.00;3.20;;;9.10;99.90;;;;;;5015517;28;20033;-72
2024/03/20 04:49:15;;;;;;;9.48;3.03;;;9.10;99.90;;;;;;5015768;28;20134;-72
2024/03/20 04:51:41;;;;;;;7.60;2.63;;;9.10;99.90;;;;;;5016320;28;20030;-71
2024/03/20 04:54:06;;;;;;;8.57;3.47;;;9.10;99.90;;;;;;5000849;28;20092;-72
2024/03/20 04:56:32;;;;;;;11.10;3.33;;;9.20;99.90;;;;;;5011625;28;20026;-72
2024/03/20 04:58:58;;;;;;;11.68;3.45;;;9.20;99.90;;;;;;5006328;28;20029;-73
2024/03/20 05:01:23;;;;;;;7.03;3.33;;;9.20;99.90;;;;;;5015242;28;20394;-69
2024/03/20 05:03:49;;;;;;;9.10;3.47;;;9.20;99.90;;;;;;5023780;28;20067;-70
2024/03/20 05:06:14;;;;;;;9.60;4.20;;;9.20;99.90;;;;;;5023218;28;20069;-71
2024/03/20 05:08:40;;;;;;;8.73;3.20;;;9.30;99.90;;;;;;5003394;28;20065;-69
2024/03/20 05:11:05;;;;;;;9.02;2.95;;;9.20;99.90;;;;;;5022205;28;20121;-72
2024/03/20 05:13:31;;;;;;;7.50;3.85;;;9.30;99.90;;;;;;5014959;28;20702;-71
2024/03/20 05:15:57;;;;;;;10.85;3.20;;;9.30;99.90;;;;;;5017014;28;20411;-75
2024/03/20 05:18:23;;;;;;;12.57;3.35;;;9.20;99.90;;;;;;5012057;28;20049;-72
2024/03/20 05:20:48;;;;;;;11.23;3.47;;;9.20;99.90;;;;;;5018335;28;20438;-73
2024/03/20 05:23:14;;;;;;;9.50;3.30;;;9.20;99.90;;;;;;5017581;28;20510;-72
2024/03/20 05:25:40;;;;;;;8.57;3.95;;;9.20;99.90;;;;;;5015737;28;20034;-72
2024/03/20 05:28:06;;;;;;;11.43;4.18;;;9.10;99.90;;;;;;5020061;28;20168;-72
2024/03/20 05:30:32;;;;;;;10.00;3.97;;;9.10;99.90;;;;;;5013790;28;20171;-71
2024/03/20 05:32:57;;;;;;;10.63;4.00;;;9.10;99.90;;;;;;5010686;28;20528;-72
2024/03/20 05:35:23;;;;;;;7.97;4.07;;;9.00;99.90;;;;;;4997611;28;20049;-71
2024/03/20 05:37:49;;;;;;;9.63;4.20;;;9.00;99.90;;;;;;5020885;28;20498;-70
2024/03/20 05:40:15;;;;;;;13.18;5.13;;;9.00;99.90;;;;;;5012391;28;20042;-71
2024/03/20 05:42:41;;;;;;;14.13;5.40;;;9.00;99.90;;;;;;5015609;28;20228;-72
2024/03/20 05:45:08;;;;;;;10.10;4.55;;;9.00;99.90;;;;;;4995581;28;20037;-71
2024/03/20 05:47:34;;;;;;;18.33;4.50;;;9.00;99.90;;;;;;5005122;28;20038;-71
2024/03/20 05:50:00;;;;;;;15.50;4.72;;;9.00;99.90;;;;;;5010346;28;20029;-69
2024/03/20 05:52:25;;;;;;;14.88;5.38;;;8.90;99.90;;;;;;4981368;28;20153;-71
2024/03/20 05:54:51;;;;;;;14.43;5.10;;;9.00;99.90;;;;;;5007308;28;20092;-72
2024/03/20 05:57:17;;;;;;;18.42;4.72;;;9.00;99.90;;;;;;5006019;28;20096;-72
2024/03/20 05:59:43;;;;;;;12.02;5.00;;;9.00;99.90;;;;;;5007949;28;20499;-73
2024/03/20 06:02:08;;;;;;;15.75;4.32;;;9.00;99.90;;;;;;5006891;28;20038;-72
2024/03/20 06:04:34;;;;;;;10.80;4.63;;;9.00;99.90;;;;;;4990409;28;20056;-72
2024/03/20 06:07:04;;;;;;;15.27;5.10;;;9.00;99.90;;;;;;4990100;28;20037;-71
2024/03/20 06:09:32;;;;;;;16.27;5.50;;;9.00;99.90;;;;;;5003875;28;20061;-72
2024/03/20 06:12:04;;;;;;;9.38;4.30;;;9.00;99.90;;;;;;4966165;28;20054;-72
2024/03/20 06:14:30;;;;;;;16.83;5.40;;;9.10;99.90;;;;;;4998691;28;20046;-73
2024/03/20 06:16:56;;;;;;;11.75;4.55;;;9.10;99.90;;;;;;4989713;28;20453;-73
2024/03/20 06:19:22;;;;;;;12.48;5.32;;;9.10;99.90;;;;;;4988788;28;20482;-72
2024/03/20 06:21:47;;;;;;;12.52;5.15;;;9.10;99.90;;;;;;5007202;28;20038;-72
2024/03/20 06:24:13;;;;;;;13.82;5.60;;;9.10;99.90;;;;;;4987760;28;20498;-72
2024/03/20 06:26:38;;;;;;;15.30;4.95;;;9.10;99.90;;;;;;5005031;28;20034;-71
2024/03/20 06:29:04;;;;;;;12.57;4.88;;;9.10;99.90;;;;;;5007739;28;20037;-71
2024/03/20 06:31:30;;;;;;;16.40;6.07;;;9.20;99.90;;;;;;4989089;28;20030;-71
2024/03/20 06:33:55;;;;;;;13.35;6.40;;;9.30;99.90;;;;;;5006907;28;20673;-73
2024/03/20 06:36:21;;;;;;;15.32;6.15;;;9.30;99.90;;;;;;5009378;28;20487;-71
2024/03/20 06:38:47;;;;;;;14.30;5.60;;;9.30;99.90;;;;;;5005030;28;20045;-74
2024/03/20 06:41:15;;;;;;;12.88;5.13;;;9.40;99.90;;;;;;5009139;28;20038;-71
2024/03/20 06:43:41;;;;;;;10.77;5.10;;;9.40;99.90;;;;;;4985753;28;20125;-72
2024/03/20 06:46:06;;;;;;;13.90;5.80;;;9.50;99.90;;;;;;4992073;28;20140;-73
2024/03/20 06:48:32;;;;;;;13.73;5.32;;;9.60;99.90;;;;;;5004892;28;20526;-72
2024/03/20 06:51:03;;;;;;;11.57;5.57;;;9.70;99.90;;;;;;4989154;28;20036;-72
2024/03/20 06:53:28;;;;;;;10.35;4.75;;;9.80;99.90;;;;;;5004486;28;20104;-72
2024/03/20 06:55:55;;;;;;;13.77;6.30;;;9.90;99.90;;;;;;5006732;28;20045;-73
2024/03/20 06:58:23;;;;;;;11.02;4.97;;;10.00;99.90;;;;;;4989694;28;20112;-72
2024/03/20 07:00:49;;;;;;;13.38;5.13;;;10.10;99.90;;;;;;4984091;28;20042;-73
2024/03/20 07:03:15;;;;;;;13.40;5.28;;;10.20;99.90;;;;;;5009020;28;20026;-73
2024/03/20 07:05:41;;;;;;;13.88;5.32;;;10.40;99.90;;;;;;5005887;28;20050;-73
2024/03/20 07:08:09;;;;;;;10.90;4.53;;;10.50;99.90;;;;;;5007040;28;20045;-72
2024/03/20 07:10:39;;;;;;;23.52;4.82;;;10.60;99.90;;;;;;5007255;28;20108;-73
2024/03/20 07:13:06;;;;;;;13.25;4.57;;;10.70;99.90;;;;;;4986806;28;20034;-71
2024/03/20 07:15:36;;;;;;;13.68;4.55;;;10.70;99.90;;;;;;4985947;28;20038;-72
2024/03/20 07:18:02;;;;;;;9.65;4.03;;;10.80;99.90;;;;;;4990814;28;20494;-69
2024/03/20 07:20:29;;;;;;;15.35;4.05;;;11.00;99.90;;;;;;4989875;28;20030;-75
2024/03/20 07:22:54;;;;;;;15.68;4.50;;;11.10;99.90;;;;;;5006754;28;20526;-72
2024/03/20 07:25:22;;;;;;;14.07;3.20;;;11.20;99.90;;;;;;5005818;28;20050;-71
2024/03/20 07:27:48;;;;;;;13.25;3.85;;;11.40;99.90;;;;;;4989767;28;20042;-72
2024/03/20 07:30:14;;;;;;;15.00;5.07;;;11.50;99.90;;;;;;5007387;28;20092;-72
2024/03/20 07:32:40;;;;;;;10.70;2.88;;;11.60;99.90;;;;;;4988877;28;20495;-72
2024/03/20 07:35:08;;;;;;;8.43;3.25;;;11.70;99.90;;;;;;5007405;28;20060;-71
2024/03/20 07:37:34;;;;;;;10.52;3.40;;;11.80;99.90;;;;;;5005466;28;20037;-73
2024/03/20 07:40:00;;;;;;;8.68;2.92;;;11.90;99.90;;;;;;5009601;28;20034;-69
2024/03/20 07:42:25;;;;;;;7.80;3.38;;;12.00;99.90;;;;;;5002886;28;20033;-72
2024/03/20 07:44:52;;;;;;;7.28;2.50;;;12.10;99.90;;;;;;4985752;28;20141;-71
2024/03/20 07:47:18;;;;;;;8.65;2.58;;;12.20;99.90;;;;;;5011099;28;20083;-74
2024/03/20 07:49:45;;;;;;;11.70;2.00;;;12.30;99.90;;;;;;4988124;28;20053;-71
2024/03/20 07:52:11;;;;;;;10.13;2.75;;;12.50;99.90;;;;;;5007173;28;20061;-72
2024/03/20 07:54:36;;;;;;;7.35;1.85;;;12.70;99.90;;;;;;5005742;28;20642;-72
2024/03/20 07:57:02;;;;;;;6.47;2.30;;;12.80;99.90;;;;;;5005678;28;20514;-72
2024/03/20 07:59:28;;;;;;;9.77;2.08;;;12.90;99.90;;;;;;5004179;28;20140;-69
2024/03/20 08:01:53;;;;;;;12.50;1.90;;;12.80;99.90;;;;;;5001151;28;20026;-73
2024/03/20 08:04:19;;;;;;;7.93;2.28;;;12.80;99.90;;;;;;5004860;28;20038;-71
2024/03/20 08:06:46;;;;;;;10.43;2.90;;;12.90;99.90;;;;;;5007429;28;20064;-72
2024/03/20 08:09:11;;;;;;;5.43;2.20;;;12.90;99.90;;;;;;5005109;28;20056;-73
2024/03/20 08:11:37;;;;;;;7.82;2.08;;;13.00;99.90;;;;;;5004670;28;20407;-73
2024/03/20 08:14:08;;;;;;;8.90;1.95;;;13.20;99.90;;;;;;5004946;28;20045;-72
2024/03/20 08:16:35;;;;;;;7.45;1.50;;;13.30;99.90;;;;;;5005000;28;20033;-73
2024/03/20 08:19:00;;;;;;;10.07;2.20;;;13.40;99.90;;;;;;5003281;28;20925;-73
2024/03/20 08:21:26;;;;;;;6.38;2.42;;;13.50;99.90;;;;;;4987812;28;20030;-70
2024/03/20 08:23:52;;;;;;;6.05;1.35;;;13.60;99.90;;;;;;5006253;28;20048;-72
2024/03/20 08:26:18;;;;;;;9.25;2.63;;;13.70;99.90;;;;;;4985072;28;20046;-72
2024/03/20 08:28:43;;;;;;;4.57;1.90;;;13.80;99.90;;;;;;5002815;28;20803;-69
2024/03/20 08:31:09;;;;;;;6.75;1.75;;;14.00;99.90;;;;;;5005640;28;20133;-72
2024/03/20 08:33:35;;;;;;;5.30;2.05;;;14.30;99.90;;;;;;5005364;28;20120;-73
2024/03/20 08:36:00;;;;;;;11.07;2.10;;;14.50;99.90;;;;;;5006219;28;20038;-72
2024/03/20 08:38:29;;;;;;;8.10;1.65;;;14.60;99.90;;;;;;4988652;28;20053;-70
2024/03/20 08:40:54;;;;;;;8.18;2.10;;;14.80;99.90;;;;;;5010926;28;22077;-74
2024/03/20 08:43:22;;;;;;;4.10;1.25;;;14.90;99.90;;;;;;5011561;28;20049;-72
2024/03/20 08:45:48;;;;;;;5.05;1.90;;;14.90;99.90;;;;;;4987335;28;20048;-74
2024/03/20 08:48:14;;;;;;;6.30;1.83;;;14.90;99.90;;;;;;5009687;28;20042;-74
2024/03/20 08:50:40;;;;;;;5.22;1.80;;;14.90;99.90;;;;;;4998016;28;20038;-72
2024/03/20 08:53:08;;;;;;;7.07;1.58;;;14.90;99.90;;;;;;4993948;28;20041;-73
2024/03/20 08:55:34;;;;;;;4.53;2.05;;;15.00;99.90;;;;;;4985792;28;20097;-73
2024/03/20 08:58:00;;;;;;;10.93;1.63;;;15.00;99.90;;;;;;5005839;28;20041;-71
2024/03/20 09:00:26;;;;;;;7.18;2.25;;;15.00;99.90;;;;;;5009633;28;20040;-72
2024/03/20 09:02:51;;;;;;;5.38;1.33;;;15.10;99.90;;;;;;4986278;28;20041;-73
2024/03/20 09:05:17;;;;;;;5.43;1.30;;;15.20;99.90;;;;;;4999885;28;20288;-75
2024/03/20 09:07:44;;;;;;;4.00;1.40;;;15.30;99.90;;;;;;5004828;28;20037;-74
2024/03/20 09:10:10;;;;;;;8.68;1.95;;;15.40;99.90;;;;;;5007626;28;20088;-73
2024/03/20 09:12:36;;;;;;;6.35;2.10;;;15.40;99.90;;;;;;5004972;28;20038;-73
2024/03/20 09:15:02;;;;;;;7.20;2.65;;;15.40;99.90;;;;;;4987512;28;20044;-72
2024/03/20 09:17:31;;;;;;;7.18;1.83;;;15.40;99.90;;;;;;5002815;28;20037;-74
2024/03/20 09:19:56;;;;;;;6.45;1.98;;;15.50;99.90;;;;;;5009698;28;20037;-73
2024/03/20 09:22:22;;;;;;;4.10;1.98;;;15.80;99.90;;;;;;4988654;28;20053;-74
2024/03/20 09:24:47;;;;;;;7.50;2.38;;;15.80;99.90;;;;;;5004055;28;20033;-72
2024/03/20 09:27:14;;;;;;;8.15;2.42;;;15.80;99.90;;;;;;5007796;28;20486;-74
2024/03/20 09:29:40;;;;;;;8.73;2.30;;;15.80;99.90;;;;;;4989223;28;20045;-71
2024/03/20 09:32:06;;;;;;;11.45;2.85;;;15.90;99.90;;;;;;5004132;28;20037;-72
2024/03/20 09:34:32;;;;;;;5.80;1.65;;;15.90;99.90;;;;;;4990323;28;20034;-72
2024/03/20 09:36:58;;;;;;;7.80;2.83;;;15.90;99.90;;;;;;4992627;28;20092;-72
2024/03/20 09:39:24;;;;;;;9.77;2.35;;;16.00;99.90;;;;;;4992877;28;20021;-71
2024/03/20 09:41:49;;;;;;;8.77;1.63;;;16.10;99.90;;;;;;4987239;28;20410;-73
2024/03/20 09:44:15;;;;;;;13.85;2.75;;;16.10;99.90;;;;;;4984894;28;20124;-78
2024/03/20 09:46:41;;;;;;;9.38;2.40;;;16.20;99.90;;;;;;5003386;28;20046;-72
2024/03/20 09:49:08;;;;;;;10.45;2.13;;;16.20;99.90;;;;;;4990476;28;20061;-71
2024/03/20 09:51:35;;;;;;;7.07;2.50;;;16.40;99.90;;;;;;5008644;28;20077;-74
2024/03/20 09:54:01;;;;;;;8.93;1.95;;;16.40;99.90;;;;;;5006730;28;20738;-73
2024/03/20 09:56:29;;;;;;;7.28;2.60;;;16.40;99.90;;;;;;5006075;28;20037;-74
2024/03/20 09:58:55;;;;;;;7.18;2.47;;;16.40;99.90;;;;;;5004518;28;20037;-74
2024/03/20 10:01:22;;;;;;;6.97;1.98;;;16.20;99.90;;;;;;5004060;28;20037;-72
2024/03/20 10:03:55;;;;;;;5.07;2.20;;;16.10;99.90;;;;;;4986393;28;20077;-72
2024/03/20 10:06:25;;;;;;;8.63;2.72;;;16.00;99.90;;;;;;4984630;28;20030;-73
2024/03/20 10:08:51;;;;;;;11.05;2.53;;;16.10;99.90;;;;;;4988582;28;20076;-73
2024/03/20 10:11:18;;;;;;;15.75;3.10;;;16.10;99.90;;;;;;4985868;28;20491;-72
2024/03/20 10:13:43;;;;;;;12.85;3.00;;;16.10;99.90;;;;;;5000990;28;20559;-73
2024/03/20 10:16:14;;;;;;;8.27;2.83;;;16.00;99.90;;;;;;4994684;28;20163;-75
2024/03/20 10:18:40;;;;;;;10.35;3.00;;;16.10;99.90;;;;;;4985674;28;20103;-74
2024/03/20 10:21:07;;;;;;;6.88;2.75;;;16.20;99.90;;;;;;5006543;28;20037;-73
2024/03/20 10:23:40;;;;;;;8.10;3.40;;;16.20;99.90;;;;;;4990143;28;20045;-72
2024/03/20 10:26:06;;;;;;;8.25;3.03;;;16.20;99.90;;;;;;5005873;28;20042;-73
2024/03/20 10:28:35;;;;;;;11.02;2.58;;;16.30;99.90;;;;;;5001962;28;20033;-75
2024/03/20 10:31:03;;;;;;;7.22;2.83;;;16.50;99.90;;;;;;4985000;28;20612;-72
2024/03/20 10:33:29;;;;;;;8.57;3.40;;;16.40;99.90;;;;;;5005195;28;20458;-72
2024/03/20 10:35:55;;;;;;;11.63;3.90;;;16.40;99.90;;;;;;5009484;28;20487;-73
2024/03/20 10:38:22;;;;;;;9.55;3.33;;;16.50;99.90;;;;;;4987356;28;20041;-74
2024/03/20 10:40:49;;;;;;;9.15;3.45;;;16.70;99.90;;;;;;5002676;28;20038;-71
2024/03/20 10:43:24;;;;;;;9.65;3.08;;;16.80;99.90;;;;;;4990061;28;20049;-72
2024/03/20 10:45:53;;;;;;;10.00;3.95;;;16.80;99.90;;;;;;4987360;28;20041;-73
2024/03/20 10:48:20;;;;;;;14.00;4.47;;;16.60;99.90;;;;;;5002530;28;20111;-74
2024/03/20 10:50:53;;;;;;;11.70;3.33;;;16.60;99.90;;;;;;5003115;28;20810;-71
2024/03/20 10:53:21;;;;;;;8.05;3.38;;;16.60;99.90;;;;;;4986344;28;20069;-75
2024/03/20 10:55:50;;;;;;;7.70;3.20;;;16.50;99.90;;;;;;4982360;28;20041;-72
2024/03/20 10:58:16;;;;;;;9.20;3.35;;;16.40;99.90;;;;;;5001252;28;20033;-74
2024/03/20 11:00:45;;;;;;;8.50;2.90;;;16.50;99.90;;;;;;5006594;28;20040;-72
2024/03/20 11:03:36;;;;;;;8.50;3.70;;;16.60;99.90;;;;;;5002061;28;20041;-74
2024/03/20 11:06:22;;;;;;;7.57;2.92;;;16.80;99.90;;;;;;4998944;28;20050;-74
2024/03/20 11:08:56;;;;;;;10.23;3.80;;;16.80;99.90;;;;;;4999630;28;20065;-72
2024/03/20 11:11:28;;;;;;;11.13;3.28;;;16.80;99.90;;;;;;5003625;28;20050;-73
2024/03/20 11:13:57;;;;;;;10.55;3.45;;;16.90;99.90;;;;;;5007310;28;20041;-72
2024/03/20 11:16:23;;;;;;;9.05;2.92;;;16.90;99.90;;;;;;5001924;28;20042;-73
2024/03/20 11:19:05;;;;;;;10.02;3.42;;;16.90;99.90;;;;;;4983612;28;20212;-74
2024/03/20 11:21:31;;;;;;;8.13;4.00;;;17.00;99.90;;;;;;5000942;28;20102;-72
2024/03/20 11:23:57;;;;;;;8.57;3.05;;;17.00;99.90;;;;;;4995912;28;20038;-71
2024/03/20 11:26:23;;;;;;;9.75;3.58;;;17.00;99.90;;;;;;4988737;28;20044;-74
2024/03/20 11:28:49;;;;;;;9.18;2.85;;;17.10;99.90;;;;;;4987804;28;20053;-72
2024/03/20 11:31:15;;;;;;;7.93;3.13;;;17.30;99.90;;;;;;4978255;28;20038;-73
2024/03/20 11:33:42;;;;;;;8.15;3.30;;;17.30;99.90;;;;;;4982063;28;20065;-74
2024/03/20 11:36:18;;;;;;;6.97;3.03;;;17.40;99.90;;;;;;4980941;28;20046;-75
2024/03/20 11:38:44;;;;;;;6.82;2.80;;;17.30;99.90;;;;;;5003744;28;20496;-74
2024/03/20 11:41:10;;;;;;;9.88;3.40;;;17.40;99.90;;;;;;5002384;28;20499;-71
2024/03/20 11:43:38;;;;;;;5.30;2.17;;;17.40;99.90;;;;;;5006293;28;20038;-72
2024/03/20 11:46:03;;;;;;;7.65;3.17;;;17.50;99.90;;;;;;5000322;28;20037;-72
2024/03/20 11:48:29;;;;;;;6.88;2.95;;;17.50;99.90;;;;;;4995423;28;20037;-71
2024/03/20 11:50:55;;;;;;;8.57;2.88;;;17.50;99.90;;;;;;4979859;28;20104;-74
2024/03/20 11:53:21;;;;;;;6.22;2.40;;;17.50;99.90;;;;;;4983647;28;20084;-75
2024/03/20 11:55:48;;;;;;;10.25;2.72;;;17.50;99.90;;;;;;5001676;28;20038;-74
2024/03/20 11:58:14;;;;;;;12.80;3.17;;;17.60;99.90;;;;;;4980741;28;20038;-73
2024/03/20 12:00:41;;;;;;;10.48;2.90;;;17.60;99.90;;;;;;5007090;28;20566;-72
2024/03/20 12:03:21;;;;;;;7.57;2.72;;;17.60;99.90;;;;;;5008679;28;20251;-71
2024/03/20 12:05:47;;;;;;;;;;;17.70;99.90;;;;;;5005149;28;20093;-73
2024/03/20 12:08:20;;;;;;;5.93;2.85;;;17.70;99.90;;;;;;4996360;28;19913;-74
2024/03/20 12:10:46;;;;;;;5.97;2.53;;;17.80;99.90;;;;;;5003775;28;20061;-72
2024/03/20 12:13:12;;;;;;;9.05;3.63;;;17.90;99.90;;;;;;5004419;28;20038;-74
2024/03/20 12:15:39;;;;;;;13.05;4.00;;;17.90;99.90;;;;;;5009171;28;20038;-73
2024/03/20 12:18:05;;;;;;;7.30;3.20;;;17.90;99.90;;;;;;4989407;28;20042;-75
2024/03/20 12:20:31;;;;;;;7.90;2.70;;;18.00;99.90;;;;;;5003828;28;20045;-74
2024/03/20 12:22:57;;;;;;;15.20;3.67;;;18.00;99.90;;;;;;4989138;28;20041;-73
2024/03/20 12:25:22;;;;;;;11.93;3.67;;;18.10;99.90;;;;;;4990810;28;20038;-74
2024/03/20 12:27:48;;;;;;;10.13;3.90;;;18.00;99.90;;;;;;5001208;28;20034;-74
2024/03/20 12:30:14;;;;;;;9.55;3.03;;;18.10;99.90;;;;;;4985177;28;20561;-74
2024/03/20 12:32:40;;;;;;;6.82;2.97;;;18.00;99.90;;;;;;5001515;28;20392;-74
2024/03/20 12:35:06;;;;;;;8.48;3.15;;;18.00;99.90;;;;;;4987985;28;20044;-74
2024/03/20 12:37:33;;;;;;;10.52;3.70;;;18.10;99.90;;;;;;5000843;28;20065;-74
2024/03/20 12:39:59;;;;;;;6.63;3.42;;;18.10;99.90;;;;;;5004992;28;20120;-73
2024/03/20 12:42:25;;;;;;;9.63;3.10;;;18.00;99.90;;;;;;4988226;28;20030;-73